Clipper Saga — LAFY6 — position and weather

sailwx.info

Track history (hours):
 
Tides and Currents Weather Stations Pressure Air Temp Water Temp Dewpoint Dewpoint Depression Visibility Wind Speed Wind Dir Waves Ship Positions

Clipper Saga

Last reported at 2014-Sep-16 02:33 UTC. Time now 2014-Sep-16 15:31 UTC.
Position N 54°05' E 004°52'.

Length 89 m; draft 5.9 m.

Type: Ship (hazmat cat C). MMSI: 246657008.

Date/timePositionNaut miles runAvg speedWind from/ knotsBaromVisibWave heightAir tempDewpointWater temp
2014-Sep-16 02:33N 54°05' E 004°52'9 9.1
2014-Sep-16 01:32N 53°56' E 004°53'9 9.5
2014-Sep-16 00:33N 53°47' E 004°52'10 9.8
2014-Sep-15 23:32N 53°37' E 004°51'1010.3
2014-Sep-15 22:33N 53°28' E 004°43'6510.3
2014-Sep-15 16:15N 52°32' E 003°48'6 8.7
2014-Sep-15 15:33N 52°28' E 003°41'9 8.5
2014-Sep-15 14:30N 52°20' E 003°35'8 8.6
2014-Sep-15 13:33N 52°12' E 003°30'8 8.5
2014-Sep-15 12:34N 52°04' E 003°25'8 8.4
2014-Sep-15 11:33N 51°56' E 003°23'6 6.4
2014-Sep-15 10:33N 51°53' E 003°32'8 7.2
2014-Sep-15 09:29N 51°55' E 003°44'0 0.0
2014-Sep-15 08:32N 51°55' E 003°44'0 0.0
2014-Sep-15 07:26N 51°55' E 003°44'0 0.0
2014-Sep-15 06:26N 51°55' E 003°44'0 0.0
2014-Sep-15 05:32N 51°55' E 003°44'0 0.0
2014-Sep-15 04:32N 51°55' E 003°44'0 0.1
2014-Sep-15 03:26N 51°55' E 003°44'0 0.0
2014-Sep-15 02:29N 51°55' E 003°44'0 0.0
2014-Sep-15 01:17N 51°55' E 003°44'0 0.0
2014-Sep-14 20:17N 51°55' E 003°44'0 0.1
2014-Sep-14 19:32N 51°55' E 003°44'0 0.0
2014-Sep-14 18:32N 51°55' E 003°44'0 0.0
2014-Sep-14 17:32N 51°55' E 003°44'0 0.1
2014-Sep-14 15:32N 51°55' E 003°44'0 0.0
2014-Sep-14 13:32N 51°55' E 003°44'0 0.0
2014-Sep-14 11:08N 51°55' E 003°44'0 0.0
2014-Sep-14 10:17N 51°55' E 003°44'0 0.0
2014-Sep-14 07:32N 51°55' E 003°44'0 0.0
2014-Sep-14 06:08N 51°55' E 003°44'0 0.0
2014-Sep-14 05:20N 51°55' E 003°44'0 0.1
2014-Sep-14 03:05N 51°55' E 003°44'0 0.0
2014-Sep-14 02:23N 51°55' E 003°44'0 0.0
2014-Sep-14 01:26N 51°55' E 003°44'0 0.0
2014-Sep-13 20:32N 51°55' E 003°44'0 0.0
2014-Sep-13 19:17N 51°55' E 003°44'0 0.2
2014-Sep-13 18:23N 51°55' E 003°44'0 0.0
2014-Sep-13 17:17N 51°55' E 003°44'0 0.1
2014-Sep-13 16:29N 51°55' E 003°44'0 0.1
2014-Sep-13 15:29N 51°55' E 003°44'0 0.0
2014-Sep-13 14:26N 51°55' E 003°44'0 0.0
2014-Sep-13 12:32N 51°55' E 003°44'0 0.0
2014-Sep-13 10:17N 51°55' E 003°44'0 0.0
2014-Sep-13 08:23N 51°55' E 003°44'0 0.0
2014-Sep-13 07:26N 51°55' E 003°44'0 0.1
2014-Sep-13 06:32N 51°55' E 003°44'0 0.0
2014-Sep-13 05:29N 51°55' E 003°44'0 0.1
2014-Sep-13 04:17N 51°55' E 003°44'0 0.1
2014-Sep-13 03:26N 51°55' E 003°44'0 0.1
2014-Sep-13 02:32N 51°55' E 003°44'0 0.0
2014-Sep-13 01:32N 51°55' E 003°44'0 0.0
2014-Sep-13 00:20N 51°55' E 003°44'0 0.0
2014-Sep-12 23:32N 51°55' E 003°44'0 0.0
2014-Sep-12 22:08N 51°55' E 003°44'0 0.1
2014-Sep-12 21:13N 51°55' E 003°44'5 7.9
2014-Sep-12 20:33N 51°60' E 003°49'9 9.4
2014-Sep-12 19:33N 51°59' E 004°04'1312.5
2014-Sep-12 18:33N 51°54' E 004°22'3 0.3
2014-Sep-12 08:22N 51°54' E 004°27'0 0.0
2014-Sep-12 06:28N 51°54' E 004°27'0 0.0
2014-Sep-12 05:28N 51°54' E 004°27'0 0.0
2014-Sep-12 04:31N 51°54' E 004°27'0 0.0
2014-Sep-12 03:28N 51°54' E 004°27'0 0.0
2014-Sep-12 02:19N 51°54' E 004°27'0 0.0
2014-Sep-12 01:28N 51°54' E 004°27'0 0.0
2014-Sep-12 00:28N 51°54' E 004°27'0 0.0
2014-Sep-11 23:28N 51°54' E 004°27'0 0.0
2014-Sep-11 22:28N 51°54' E 004°27'0 0.0
2014-Sep-11 21:28N 51°54' E 004°27'0 0.0
2014-Sep-11 20:31N 51°54' E 004°27'0 0.0
2014-Sep-11 19:10N 51°54' E 004°27'0 0.0
2014-Sep-11 18:31N 51°54' E 004°27'0 0.0
2014-Sep-11 17:28N 51°54' E 004°27'0 0.0
2014-Sep-11 16:28N 51°54' E 004°27'0 0.0
2014-Sep-11 15:28N 51°54' E 004°27'0 0.0
2014-Sep-11 14:28N 51°54' E 004°27'0 0.0
2014-Sep-11 07:28N 51°54' E 004°27'0 0.0
2014-Sep-11 06:28N 51°54' E 004°27'0 0.0
2014-Sep-11 05:28N 51°54' E 004°27'0 0.0
2014-Sep-11 04:28N 51°54' E 004°27'0 0.0
2014-Sep-11 03:31N 51°54' E 004°27'0 0.0
2014-Sep-11 02:28N 51°54' E 004°27'0 0.0
2014-Sep-11 01:31N 51°54' E 004°27'0 0.0
2014-Sep-11 00:31N 51°54' E 004°27'0 0.0
2014-Sep-10 23:31N 51°54' E 004°27'0 0.0
2014-Sep-10 22:31N 51°54' E 004°27'0 0.0
2014-Sep-10 21:31N 51°54' E 004°27'0 0.0
2014-Sep-10 20:31N 51°54' E 004°27'0 0.0
2014-Sep-10 19:28N 51°54' E 004°27'0 0.0
2014-Sep-10 18:31N 51°54' E 004°27'3 3.5
2014-Sep-10 17:33N 51°54' E 004°21'10 9.9
2014-Sep-10 16:33N 51°59' E 004°07'1212.3
2014-Sep-10 15:33N 51°59' E 003°47'8 0.3
2014-Sep-09 14:25N 51°56' E 003°36'0 0.0
2014-Sep-09 13:31N 51°56' E 003°36'0 0.1
2014-Sep-09 12:28N 51°56' E 003°36'0 0.0
2014-Sep-08 23:31N 51°56' E 003°36'0 0.0
2014-Sep-08 04:19N 51°56' E 003°36'0 0.0
2014-Sep-08 01:16N 51°56' E 003°36'0 0.0
2014-Sep-08 00:31N 51°56' E 003°36'0 0.0
2014-Sep-07 23:31N 51°56' E 003°36'0 0.0
2014-Sep-07 17:14N 51°56' E 003°36'7 9.6
2014-Sep-07 16:31N 51°56' E 003°25'57 9.5
2014-Sep-07 10:31N 52°36' E 002°19'1010.6
2014-Sep-07 09:33N 52°43' E 002°05'1110.7
2014-Sep-07 08:33N 52°49' E 001°51'1111.3
2014-Sep-07 07:33N 52°56' E 001°37'1211.7
2014-Sep-07 06:33N 53°06' E 001°25'4911.8
2014-Sep-07 02:26N 53°46' E 000°40'1011.8
2014-Sep-07 01:33N 53°55' E 000°30'1111.5
2014-Sep-07 00:33N 54°04' E 000°19'1111.0
2014-Sep-06 23:33N 54°14' E 000°10'1110.6
2014-Sep-06 22:33N 54°22' W 000°00'1010.1
2014-Sep-06 21:34N 54°31' W 000°10'9 9.0
2014-Sep-06 20:33N 54°37' W 000°22'1111.2
2014-Sep-06 19:34N 54°39' W 000°41'1212.1
2014-Sep-06 18:33N 54°40' W 001°02'0 0.3
2014-Sep-06 17:31N 54°40' W 001°02'0 0.0
2014-Sep-06 16:31N 54°40' W 001°02'0 0.0
2014-Sep-06 15:31N 54°40' W 001°02'0 0.0
2014-Sep-06 14:19N 54°40' W 001°02'0 0.0
2014-Sep-06 13:19N 54°40' W 001°02'0 0.0
2014-Sep-06 12:19N 54°40' W 001°02'0 0.0
2014-Sep-06 11:19N 54°40' W 001°02'0 0.0
2014-Sep-06 10:19N 54°40' W 001°02'0 0.0
2014-Sep-06 09:22N 54°40' W 001°02'0 0.0
2014-Sep-06 08:25N 54°40' W 001°02'0 0.0
2014-Sep-06 07:25N 54°40' W 001°02'0 0.0
2014-Sep-06 06:25N 54°40' W 001°02'0 0.0
2014-Sep-06 05:28N 54°40' W 001°02'0 0.0
2014-Sep-06 04:31N 54°40' W 001°02'0 0.0
2014-Sep-06 03:31N 54°40' W 001°02'  
Track history (hours):
 
Tides and Currents Weather Stations Pressure Air Temp Water Temp Dewpoint Dewpoint Depression Visibility Wind Speed Wind Dir Waves Ship Positions

Clipper Saga

Last reported at 2014-Sep-16 02:33 UTC. Time now 2014-Sep-16 15:31 UTC.
Position N 54°05' E 004°52'.

Length 89 m; draft 5.9 m.

Type: Ship (hazmat cat C). MMSI: 246657008.

Date/timePositionNaut miles runAvg speedWind from/ knotsBaromVisibWave heightAir tempDewpointWater temp
2014-Sep-16 02:33N 54°05' E 004°52'9 9.1
2014-Sep-16 01:32N 53°56' E 004°53'9 9.5
2014-Sep-16 00:33N 53°47' E 004°52'10 9.8
2014-Sep-15 23:32N 53°37' E 004°51'1010.3
2014-Sep-15 22:33N 53°28' E 004°43'6510.3
2014-Sep-15 16:15N 52°32' E 003°48'6 8.7
2014-Sep-15 15:33N 52°28' E 003°41'9 8.5
2014-Sep-15 14:30N 52°20' E 003°35'8 8.6
2014-Sep-15 13:33N 52°12' E 003°30'8 8.5
2014-Sep-15 12:34N 52°04' E 003°25'8 8.4
2014-Sep-15 11:33N 51°56' E 003°23'6 6.4
2014-Sep-15 10:33N 51°53' E 003°32'8 7.2
2014-Sep-15 09:29N 51°55' E 003°44'0 0.0
2014-Sep-15 08:32N 51°55' E 003°44'0 0.0
2014-Sep-15 07:26N 51°55' E 003°44'0 0.0
2014-Sep-15 06:26N 51°55' E 003°44'0 0.0
2014-Sep-15 05:32N 51°55' E 003°44'0 0.0
2014-Sep-15 04:32N 51°55' E 003°44'0 0.1
2014-Sep-15 03:26N 51°55' E 003°44'0 0.0
2014-Sep-15 02:29N 51°55' E 003°44'0 0.0
2014-Sep-15 01:17N 51°55' E 003°44'0 0.0
2014-Sep-14 20:17N 51°55' E 003°44'0 0.1
2014-Sep-14 19:32N 51°55' E 003°44'0 0.0
2014-Sep-14 18:32N 51°55' E 003°44'0 0.0
2014-Sep-14 17:32N 51°55' E 003°44'0 0.1
2014-Sep-14 15:32N 51°55' E 003°44'0 0.0
2014-Sep-14 13:32N 51°55' E 003°44'0 0.0
2014-Sep-14 11:08N 51°55' E 003°44'0 0.0
2014-Sep-14 10:17N 51°55' E 003°44'0 0.0
2014-Sep-14 07:32N 51°55' E 003°44'0 0.0
2014-Sep-14 06:08N 51°55' E 003°44'0 0.0
2014-Sep-14 05:20N 51°55' E 003°44'0 0.1
2014-Sep-14 03:05N 51°55' E 003°44'0 0.0
2014-Sep-14 02:23N 51°55' E 003°44'0 0.0
2014-Sep-14 01:26N 51°55' E 003°44'0 0.0
2014-Sep-13 20:32N 51°55' E 003°44'0 0.0
2014-Sep-13 19:17N 51°55' E 003°44'0 0.2
2014-Sep-13 18:23N 51°55' E 003°44'0 0.0
2014-Sep-13 17:17N 51°55' E 003°44'0 0.1
2014-Sep-13 16:29N 51°55' E 003°44'0 0.1
2014-Sep-13 15:29N 51°55' E 003°44'0 0.0
2014-Sep-13 14:26N 51°55' E 003°44'0 0.0
2014-Sep-13 12:32N 51°55' E 003°44'0 0.0
2014-Sep-13 10:17N 51°55' E 003°44'0 0.0
2014-Sep-13 08:23N 51°55' E 003°44'0 0.0
2014-Sep-13 07:26N 51°55' E 003°44'0 0.1
2014-Sep-13 06:32N 51°55' E 003°44'0 0.0
2014-Sep-13 05:29N 51°55' E 003°44'0 0.1
2014-Sep-13 04:17N 51°55' E 003°44'0 0.1
2014-Sep-13 03:26N 51°55' E 003°44'0 0.1
2014-Sep-13 02:32N 51°55' E 003°44'0 0.0
2014-Sep-13 01:32N 51°55' E 003°44'0 0.0
2014-Sep-13 00:20N 51°55' E 003°44'0 0.0
2014-Sep-12 23:32N 51°55' E 003°44'0 0.0
2014-Sep-12 22:08N 51°55' E 003°44'0 0.1
2014-Sep-12 21:13N 51°55' E 003°44'5 7.9
2014-Sep-12 20:33N 51°60' E 003°49'9 9.4
2014-Sep-12 19:33N 51°59' E 004°04'1312.5
2014-Sep-12 18:33N 51°54' E 004°22'3 0.3
2014-Sep-12 08:22N 51°54' E 004°27'0 0.0
2014-Sep-12 06:28N 51°54' E 004°27'0 0.0
2014-Sep-12 05:28N 51°54' E 004°27'0 0.0
2014-Sep-12 04:31N 51°54' E 004°27'0 0.0
2014-Sep-12 03:28N 51°54' E 004°27'0 0.0
2014-Sep-12 02:19N 51°54' E 004°27'0 0.0
2014-Sep-12 01:28N 51°54' E 004°27'0 0.0
2014-Sep-12 00:28N 51°54' E 004°27'0 0.0
2014-Sep-11 23:28N 51°54' E 004°27'0 0.0
2014-Sep-11 22:28N 51°54' E 004°27'0 0.0
2014-Sep-11 21:28N 51°54' E 004°27'0 0.0
2014-Sep-11 20:31N 51°54' E 004°27'0 0.0
2014-Sep-11 19:10N 51°54' E 004°27'0 0.0
2014-Sep-11 18:31N 51°54' E 004°27'0 0.0
2014-Sep-11 17:28N 51°54' E 004°27'0 0.0
2014-Sep-11 16:28N 51°54' E 004°27'0 0.0
2014-Sep-11 15:28N 51°54' E 004°27'0 0.0
2014-Sep-11 14:28N 51°54' E 004°27'0 0.0
2014-Sep-11 07:28N 51°54' E 004°27'0 0.0
2014-Sep-11 06:28N 51°54' E 004°27'0 0.0
2014-Sep-11 05:28N 51°54' E 004°27'0 0.0
2014-Sep-11 04:28N 51°54' E 004°27'0 0.0
2014-Sep-11 03:31N 51°54' E 004°27'0 0.0
2014-Sep-11 02:28N 51°54' E 004°27'0 0.0
2014-Sep-11 01:31N 51°54' E 004°27'0 0.0
2014-Sep-11 00:31N 51°54' E 004°27'0 0.0
2014-Sep-10 23:31N 51°54' E 004°27'0 0.0
2014-Sep-10 22:31N 51°54' E 004°27'0 0.0
2014-Sep-10 21:31N 51°54' E 004°27'0 0.0
2014-Sep-10 20:31N 51°54' E 004°27'0 0.0
2014-Sep-10 19:28N 51°54' E 004°27'0 0.0
2014-Sep-10 18:31N 51°54' E 004°27'3 3.5
2014-Sep-10 17:33N 51°54' E 004°21'10 9.9
2014-Sep-10 16:33N 51°59' E 004°07'1212.3
2014-Sep-10 15:33N 51°59' E 003°47'8 0.3
2014-Sep-09 14:25N 51°56' E 003°36'0 0.0
2014-Sep-09 13:31N 51°56' E 003°36'0 0.1
2014-Sep-09 12:28N 51°56' E 003°36'0 0.0
2014-Sep-08 23:31N 51°56' E 003°36'0 0.0
2014-Sep-08 04:19N 51°56' E 003°36'0 0.0
2014-Sep-08 01:16N 51°56' E 003°36'0 0.0
2014-Sep-08 00:31N 51°56' E 003°36'0 0.0
2014-Sep-07 23:31N 51°56' E 003°36'0 0.0
2014-Sep-07 17:14N 51°56' E 003°36'7 9.6
2014-Sep-07 16:31N 51°56' E 003°25'57 9.5
2014-Sep-07 10:31N 52°36' E 002°19'1010.6
2014-Sep-07 09:33N 52°43' E 002°05'1110.7
2014-Sep-07 08:33N 52°49' E 001°51'1111.3
2014-Sep-07 07:33N 52°56' E 001°37'1211.7
2014-Sep-07 06:33N 53°06' E 001°25'4911.8
2014-Sep-07 02:26N 53°46' E 000°40'1011.8
2014-Sep-07 01:33N 53°55' E 000°30'1111.5
2014-Sep-07 00:33N 54°04' E 000°19'1111.0
2014-Sep-06 23:33N 54°14' E 000°10'1110.6
2014-Sep-06 22:33N 54°22' W 000°00'1010.1
2014-Sep-06 21:34N 54°31' W 000°10'9 9.0
2014-Sep-06 20:33N 54°37' W 000°22'1111.2
2014-Sep-06 19:34N 54°39' W 000°41'1212.1
2014-Sep-06 18:33N 54°40' W 001°02'0 0.3
2014-Sep-06 17:31N 54°40' W 001°02'0 0.0
2014-Sep-06 16:31N 54°40' W 001°02'0 0.0
2014-Sep-06 15:31N 54°40' W 001°02'0 0.0
2014-Sep-06 14:19N 54°40' W 001°02'0 0.0
2014-Sep-06 13:19N 54°40' W 001°02'0 0.0
2014-Sep-06 12:19N 54°40' W 001°02'0 0.0
2014-Sep-06 11:19N 54°40' W 001°02'0 0.0
2014-Sep-06 10:19N 54°40' W 001°02'0 0.0
2014-Sep-06 09:22N 54°40' W 001°02'0 0.0
2014-Sep-06 08:25N 54°40' W 001°02'0 0.0
2014-Sep-06 07:25N 54°40' W 001°02'0 0.0
2014-Sep-06 06:25N 54°40' W 001°02'0 0.0
2014-Sep-06 05:28N 54°40' W 001°02'0 0.0
2014-Sep-06 04:31N 54°40' W 001°02'0 0.0
2014-Sep-06 03:31N 54°40' W 001°02'  

Dump ship's entire track history